createdAt,value
2023-05-18T00:01:17.960Z,11.42
2023-05-18T00:03:50.551Z,11.43
2023-05-18T00:06:25.654Z,11.45
2023-05-18T00:09:01.027Z,11.46
2023-05-18T00:11:35.043Z,11.48
2023-05-18T00:14:04.933Z,11.50
2023-05-18T00:16:38.352Z,11.47
2023-05-18T00:19:10.949Z,11.47
2023-05-18T00:21:42.224Z,11.48
2023-05-18T00:24:18.407Z,11.48
2023-05-18T00:26:55.991Z,11.47
2023-05-18T00:29:26.529Z,11.46
2023-05-18T00:31:58.639Z,11.45
2023-05-18T00:34:31.226Z,11.44
2023-05-18T00:37:07.615Z,11.43
2023-05-18T00:39:37.567Z,11.41
2023-05-18T00:42:08.355Z,11.42
2023-05-18T00:44:47.319Z,11.41
2023-05-18T00:47:18.732Z,11.44
2023-05-18T00:49:59.004Z,11.44
2023-05-18T00:52:30.073Z,11.46
2023-05-18T00:55:01.086Z,11.44
2023-05-18T00:57:31.295Z,11.44
2023-05-18T01:00:03.034Z,11.44
2023-05-18T01:02:37.566Z,11.43
2023-05-18T01:05:11.282Z,11.44
2023-05-18T01:07:42.795Z,11.44
2023-05-18T01:10:29.625Z,11.44
2023-05-18T01:13:06.055Z,11.42
2023-05-18T01:15:41.760Z,11.42
2023-05-18T01:18:23.365Z,11.40
2023-05-18T01:21:04.532Z,11.40
2023-05-18T01:24:03.935Z,11.41
2023-05-18T01:26:41.572Z,11.42
2023-05-18T01:29:13.209Z,11.41
2023-05-18T01:31:45.512Z,11.39
2023-05-18T01:34:15.361Z,11.38
2023-05-18T01:36:47.550Z,11.38
2023-05-18T01:39:23.044Z,11.35
2023-05-18T01:42:03.783Z,11.29
2023-05-18T01:44:42.803Z,11.25
2023-05-18T01:47:16.548Z,11.23
2023-05-18T01:49:51.203Z,11.25
2023-05-18T01:52:24.109Z,11.27
2023-05-18T01:54:57.398Z,11.31
2023-05-18T01:57:33.458Z,11.32
2023-05-18T02:00:04.898Z,11.34
2023-05-18T02:02:34.834Z,11.33
2023-05-18T02:05:05.834Z,11.32
2023-05-18T02:07:35.829Z,11.34
2023-05-18T02:10:05.636Z,11.36
2023-05-18T02:12:38.079Z,11.35
2023-05-18T02:15:08.984Z,11.36
2023-05-18T02:17:40.287Z,11.36
2023-05-18T02:20:11.724Z,11.37
2023-05-18T02:22:41.617Z,11.36
2023-05-18T02:25:15.523Z,11.37
2023-05-18T02:27:47.998Z,11.36
2023-05-18T02:30:18.810Z,11.32
2023-05-18T02:32:49.489Z,11.26
2023-05-18T02:35:20.301Z,11.21
2023-05-18T02:37:50.300Z,11.15
2023-05-18T02:40:20.349Z,11.12
2023-05-18T02:42:52.800Z,11.12
2023-05-18T02:45:25.693Z,11.14
2023-05-18T02:47:55.559Z,11.15
2023-05-18T02:50:25.416Z,11.17
2023-05-18T02:52:56.161Z,11.15
2023-05-18T02:55:26.050Z,11.13
2023-05-18T02:58:00.190Z,11.12
2023-05-18T03:00:30.911Z,11.14
2023-05-18T03:03:01.193Z,11.16
2023-05-18T03:05:31.388Z,11.18
2023-05-18T03:08:02.657Z,11.18
2023-05-18T03:10:33.050Z,11.17
2023-05-18T03:13:05.534Z,11.17
2023-05-18T03:15:35.555Z,11.17
2023-05-18T03:18:05.470Z,11.16
2023-05-18T03:20:35.872Z,11.16
2023-05-18T03:23:05.759Z,11.19
2023-05-18T03:25:39.767Z,11.19
2023-05-18T03:28:12.230Z,11.21
2023-05-18T03:30:42.217Z,11.21
2023-05-18T03:33:12.481Z,11.21
2023-05-18T03:35:43.182Z,11.18
2023-05-18T03:38:13.114Z,11.20
2023-05-18T03:40:43.086Z,11.20
2023-05-18T03:43:15.554Z,11.19
2023-05-18T03:45:45.446Z,11.20
2023-05-18T03:48:15.328Z,11.19
2023-05-18T03:50:45.228Z,11.21
2023-05-18T03:53:19.434Z,11.21
2023-05-18T03:55:50.391Z,11.22
2023-05-18T03:58:23.692Z,11.22
2023-05-18T04:00:53.694Z,11.21
2023-05-18T04:03:25.275Z,11.23
2023-05-18T04:05:56.826Z,11.23
2023-05-18T04:08:26.695Z,11.25
2023-05-18T04:10:56.850Z,11.26
2023-05-18T04:13:29.292Z,11.27
2023-05-18T04:16:00.095Z,11.26
2023-05-18T04:18:32.420Z,11.27
2023-05-18T04:21:03.347Z,11.27
2023-05-18T04:23:33.682Z,11.29
2023-05-18T04:26:03.887Z,11.29
2023-05-18T04:28:37.856Z,11.31
2023-05-18T04:31:07.791Z,11.33
2023-05-18T04:33:38.696Z,11.38
2023-05-18T04:36:09.887Z,11.40
2023-05-18T04:38:39.709Z,11.44
2023-05-18T04:41:09.717Z,11.45
2023-05-18T04:43:42.826Z,11.47
2023-05-18T04:46:14.262Z,11.49
2023-05-18T04:48:44.111Z,11.51
2023-05-18T04:51:13.983Z,11.51
2023-05-18T04:53:46.331Z,11.52
2023-05-18T04:56:16.755Z,11.55
2023-05-18T04:58:49.450Z,11.58
2023-05-18T05:01:19.449Z,11.60
2023-05-18T05:03:49.511Z,11.64
2023-05-18T05:06:19.477Z,11.68
2023-05-18T05:08:49.437Z,11.72
2023-05-18T05:11:22.569Z,11.73
2023-05-18T05:14:03.395Z,11.74
2023-05-18T05:16:35.468Z,11.78
2023-05-18T05:19:05.602Z,11.80
2023-05-18T05:21:35.527Z,11.83
2023-05-18T05:24:08.674Z,11.85
2023-05-18T05:26:38.524Z,11.92
2023-05-18T05:29:13.125Z,11.94
2023-05-18T05:31:43.165Z,11.98
2023-05-18T05:34:17.276Z,12.02
2023-05-18T05:36:48.430Z,12.07
2023-05-18T05:39:22.511Z,12.07
2023-05-18T05:41:54.269Z,12.12
2023-05-18T05:44:30.289Z,12.17
2023-05-18T05:47:02.252Z,12.20
2023-05-18T05:49:33.264Z,12.24
2023-05-18T05:52:10.690Z,12.25
2023-05-18T05:54:43.440Z,12.28
2023-05-18T05:57:17.047Z,12.30
2023-05-18T05:59:53.198Z,12.32
2023-05-18T06:02:26.380Z,12.36
2023-05-18T06:04:57.634Z,12.38
2023-05-18T06:07:27.468Z,12.43
2023-05-18T06:10:00.724Z,12.46
2023-05-18T06:12:30.941Z,12.51
2023-05-18T06:15:06.235Z,12.54
2023-05-18T06:17:38.591Z,12.58
2023-05-18T06:20:10.301Z,12.61
2023-05-18T06:22:41.584Z,12.64
2023-05-18T06:25:22.267Z,12.65
2023-05-18T06:27:59.174Z,12.71
2023-05-18T06:30:38.614Z,12.79
2023-05-18T06:33:15.848Z,12.88
2023-05-18T06:35:54.456Z,12.95
2023-05-18T06:38:51.277Z,13.01
2023-05-18T06:41:19.526Z,13.07
2023-05-18T06:43:49.821Z,13.10
2023-05-18T06:46:26.842Z,13.11
2023-05-18T06:48:57.129Z,13.14
2023-05-18T06:51:27.039Z,13.25
2023-05-18T06:53:56.892Z,13.38
2023-05-18T06:56:29.833Z,13.54
2023-05-18T06:59:00.467Z,13.71
2023-05-18T07:01:33.951Z,13.87
2023-05-18T07:04:03.991Z,14.09
2023-05-18T07:06:34.048Z,14.32
2023-05-18T07:09:09.775Z,14.55
2023-05-18T07:11:40.569Z,14.69
2023-05-18T07:14:10.475Z,14.87
2023-05-18T07:16:44.296Z,14.99
2023-05-18T07:19:14.214Z,15.02
2023-05-18T07:21:44.123Z,15.06
2023-05-18T07:24:13.960Z,15.15
2023-05-18T07:26:43.845Z,15.21
2023-05-18T07:29:13.705Z,15.25
2023-05-18T07:31:46.430Z,15.26
2023-05-18T07:34:16.542Z,15.29
2023-05-18T07:36:46.392Z,15.24
2023-05-18T07:39:19.469Z,15.11
2023-05-18T07:41:49.869Z,15.04
2023-05-18T07:44:19.700Z,14.89
2023-05-18T07:46:52.362Z,14.75
2023-05-18T07:49:23.462Z,14.66
2023-05-18T07:51:58.782Z,14.60
2023-05-18T07:54:28.899Z,14.58
2023-05-18T07:57:00.821Z,14.57
2023-05-18T07:59:31.216Z,14.51
2023-05-18T08:02:04.582Z,14.52
2023-05-18T08:04:34.593Z,14.63
2023-05-18T08:07:05.323Z,14.61
2023-05-18T08:09:35.250Z,14.65
2023-05-18T08:12:05.177Z,14.68
2023-05-18T08:14:35.132Z,14.74
2023-05-18T08:17:08.531Z,14.83
2023-05-18T08:19:41.113Z,14.96
2023-05-18T08:22:11.697Z,15.18
2023-05-18T08:24:41.599Z,15.30
2023-05-18T08:27:11.549Z,15.40
2023-05-18T08:29:41.389Z,15.54
2023-05-18T08:32:13.900Z,15.62
2023-05-18T08:34:44.028Z,15.46
2023-05-18T08:37:13.891Z,15.48
2023-05-18T08:39:49.268Z,15.37
2023-05-18T08:42:29.504Z,15.29
2023-05-18T08:45:14.336Z,15.24
2023-05-18T08:47:47.707Z,15.27
2023-05-18T08:50:22.079Z,15.28
2023-05-18T08:52:59.534Z,15.18
2023-05-18T08:55:34.944Z,15.10
2023-05-18T08:58:07.527Z,15.04
2023-05-18T09:00:37.697Z,14.95
2023-05-18T09:03:11.192Z,14.90
2023-05-18T09:05:41.614Z,14.89
2023-05-18T09:08:13.077Z,14.82
2023-05-18T09:10:43.197Z,14.75
2023-05-18T09:13:14.254Z,14.80
2023-05-18T09:15:45.773Z,14.82
2023-05-18T09:18:18.297Z,14.83
2023-05-18T09:20:48.350Z,14.69
2023-05-18T09:23:19.250Z,14.69
2023-05-18T09:25:50.203Z,14.76
2023-05-18T09:28:30.728Z,14.89
2023-05-18T09:31:02.296Z,14.91
2023-05-18T09:33:40.269Z,14.93
2023-05-18T09:36:12.384Z,14.89
2023-05-18T09:38:48.022Z,14.89
2023-05-18T09:41:19.661Z,14.72
2023-05-18T09:43:51.728Z,14.70
2023-05-18T09:46:22.389Z,14.70
2023-05-18T09:48:59.233Z,14.75
2023-05-18T09:51:29.986Z,14.69
2023-05-18T09:54:05.194Z,14.63
2023-05-18T09:56:39.243Z,14.62
2023-05-18T09:59:13.296Z,14.59
2023-05-18T10:02:01.174Z,14.67
2023-05-18T10:04:44.861Z,14.45
2023-05-18T10:07:15.512Z,14.33
2023-05-18T10:09:47.144Z,14.24
2023-05-18T10:12:18.327Z,14.19
2023-05-18T10:14:49.256Z,14.20
2023-05-18T10:17:19.572Z,14.02
2023-05-18T10:19:57.188Z,13.94
2023-05-18T10:22:30.625Z,13.92
2023-05-18T10:25:02.200Z,14.08
2023-05-18T10:27:33.249Z,14.17
2023-05-18T10:30:07.818Z,14.26
2023-05-18T10:32:39.691Z,14.35
2023-05-18T10:35:13.389Z,14.37
2023-05-18T10:37:47.518Z,14.40
2023-05-18T10:40:18.312Z,14.36
2023-05-18T10:42:49.050Z,14.35
2023-05-18T10:45:18.989Z,14.35
2023-05-18T10:47:54.514Z,14.29
2023-05-18T10:50:32.609Z,14.31
2023-05-18T10:53:03.650Z,14.25
2023-05-18T10:55:33.773Z,14.35
2023-05-18T10:58:10.618Z,14.31
2023-05-18T11:00:45.551Z,14.24
2023-05-18T11:03:17.527Z,14.13
2023-05-18T11:05:52.893Z,14.11
2023-05-18T11:08:30.342Z,14.15
2023-05-18T11:11:10.024Z,14.20
2023-05-18T11:13:46.441Z,14.23
2023-05-18T11:16:18.614Z,14.23
2023-05-18T11:18:49.860Z,14.24
2023-05-18T11:21:54.767Z,14.18
2023-05-18T11:24:32.800Z,14.28
2023-05-18T11:27:15.155Z,14.20
2023-05-18T11:29:50.684Z,14.21
2023-05-18T11:32:35.434Z,14.27
2023-05-18T11:35:11.228Z,14.29
2023-05-18T11:37:55.682Z,14.34
2023-05-18T11:40:50.219Z,14.38
2023-05-18T11:43:24.877Z,14.44
2023-05-18T11:45:59.687Z,14.32
2023-05-18T11:48:31.137Z,14.30
2023-05-18T11:51:01.454Z,14.36
2023-05-18T11:53:34.216Z,14.40
2023-05-18T11:56:04.354Z,14.38
2023-05-18T11:58:34.646Z,14.44
2023-05-18T12:01:06.971Z,14.48
2023-05-18T12:03:37.253Z,14.39
2023-05-18T12:06:10.516Z,14.42
2023-05-18T12:08:44.946Z,14.50
2023-05-18T12:11:15.335Z,14.58
2023-05-18T12:13:49.354Z,14.67
2023-05-18T12:16:22.907Z,14.77
2023-05-18T12:18:55.938Z,14.71
2023-05-18T12:21:25.982Z,14.76
2023-05-18T12:24:05.288Z,14.54
2023-05-18T12:26:38.532Z,14.50
2023-05-18T12:29:13.076Z,14.51
2023-05-18T12:31:48.794Z,14.53
2023-05-18T12:34:21.530Z,14.65
2023-05-18T12:36:57.952Z,14.78
2023-05-18T12:39:30.861Z,14.91
2023-05-18T12:42:15.283Z,14.80
2023-05-18T12:44:46.758Z,14.83
2023-05-18T12:47:17.511Z,14.75
2023-05-18T12:49:54.714Z,14.67
2023-05-18T12:52:24.762Z,14.71
2023-05-18T12:55:10.797Z,14.69
2023-05-18T12:57:47.963Z,14.82
2023-05-18T13:00:23.249Z,14.96
2023-05-18T13:02:53.258Z,14.99
2023-05-18T13:05:27.868Z,14.97
2023-05-18T13:07:59.184Z,14.71
2023-05-18T13:10:34.072Z,14.73
2023-05-18T13:13:06.246Z,14.73
2023-05-18T13:15:43.752Z,14.69
2023-05-18T13:18:14.737Z,14.82
2023-05-18T13:20:48.630Z,14.78
2023-05-18T13:23:20.347Z,14.81
2023-05-18T13:25:55.455Z,14.92
2023-05-18T13:28:26.646Z,14.90
2023-05-18T13:30:59.580Z,14.96
2023-05-18T13:33:35.515Z,14.79
2023-05-18T13:36:05.546Z,14.75
2023-05-18T13:38:38.480Z,14.85
2023-05-18T13:41:15.441Z,14.82
2023-05-18T13:43:45.740Z,14.60
2023-05-18T13:46:29.070Z,14.57
2023-05-18T13:49:05.081Z,14.66
2023-05-18T13:51:34.912Z,14.52
2023-05-18T13:54:04.762Z,14.61
2023-05-18T13:56:38.138Z,14.63
2023-05-18T13:59:07.976Z,14.64
2023-05-18T14:01:37.845Z,14.48
2023-05-18T14:04:08.185Z,14.44
2023-05-18T14:06:40.824Z,14.45
2023-05-18T14:09:13.079Z,14.38
2023-05-18T14:11:45.531Z,14.46
2023-05-18T14:14:15.409Z,14.25
2023-05-18T14:16:45.323Z,14.41
2023-05-18T14:19:15.377Z,14.55
2023-05-18T14:21:45.337Z,14.39
2023-05-18T14:24:15.555Z,14.26
2023-05-18T14:26:47.989Z,14.18
2023-05-18T14:29:17.855Z,14.18
2023-05-18T14:31:48.535Z,14.19
2023-05-18T14:34:23.013Z,14.12
2023-05-18T14:36:52.823Z,14.08
2023-05-18T14:39:27.355Z,14.13
2023-05-18T14:41:59.792Z,14.24
2023-05-18T14:44:29.826Z,14.33
2023-05-18T14:46:59.833Z,14.32
2023-05-18T14:49:29.692Z,14.23
2023-05-18T14:51:59.523Z,14.15
2023-05-18T14:54:29.526Z,13.98
2023-05-18T14:57:02.628Z,13.99
2023-05-18T14:59:32.460Z,14.01
2023-05-18T15:02:02.549Z,14.04
2023-05-18T15:04:32.468Z,14.10
2023-05-18T15:07:02.379Z,14.11
2023-05-18T15:09:32.223Z,14.02
2023-05-18T15:12:04.714Z,14.09
2023-05-18T15:14:34.566Z,13.90
2023-05-18T15:17:04.429Z,13.74
2023-05-18T15:19:34.292Z,13.66
2023-05-18T15:22:04.130Z,13.64
2023-05-18T15:24:36.305Z,13.45
2023-05-18T15:27:09.214Z,13.55
2023-05-18T15:29:39.203Z,13.53
2023-05-18T15:32:10.128Z,13.49
2023-05-18T15:34:42.925Z,13.61
2023-05-18T15:37:12.768Z,13.65
2023-05-18T15:39:42.775Z,13.73
2023-05-18T15:42:15.272Z,13.61
2023-05-18T15:44:45.124Z,13.66
2023-05-18T15:47:15.007Z,13.48
2023-05-18T15:49:44.870Z,13.37
2023-05-18T15:52:14.689Z,13.40
2023-05-18T15:54:44.537Z,13.25
2023-05-18T15:57:17.099Z,13.18
2023-05-18T15:59:48.494Z,13.09
2023-05-18T16:02:22.579Z,13.06
2023-05-18T16:04:53.565Z,13.10
2023-05-18T16:07:23.458Z,13.18
2023-05-18T16:09:53.313Z,13.22
2023-05-18T16:12:28.221Z,13.17
2023-05-18T16:14:58.072Z,13.10
2023-05-18T16:17:28.016Z,13.07
2023-05-18T16:19:57.887Z,13.05
2023-05-18T16:22:27.789Z,12.91
2023-05-18T16:24:59.125Z,12.84
2023-05-18T16:27:31.687Z,12.89
2023-05-18T16:30:01.530Z,12.88
2023-05-18T16:32:31.967Z,12.86
2023-05-18T16:35:02.327Z,12.91
2023-05-18T16:37:33.017Z,12.84
2023-05-18T16:40:02.955Z,12.79
2023-05-18T16:42:35.579Z,12.79
2023-05-18T16:45:05.661Z,12.93
2023-05-18T16:47:35.547Z,12.96
2023-05-18T16:50:05.436Z,13.04
2023-05-18T16:52:35.324Z,13.07
2023-05-18T16:55:05.208Z,12.96
2023-05-18T16:57:37.647Z,12.96
2023-05-18T17:00:09.921Z,12.84
2023-05-18T17:02:40.209Z,12.76
2023-05-18T17:05:11.207Z,12.73
2023-05-18T17:07:41.370Z,12.67
2023-05-18T17:10:12.556Z,12.58
2023-05-18T17:12:45.313Z,12.55
2023-05-18T17:15:16.525Z,12.47
2023-05-18T17:17:47.207Z,12.48
2023-05-18T17:20:17.142Z,12.50
2023-05-18T17:22:47.045Z,12.46
2023-05-18T17:25:17.042Z,12.31
2023-05-18T17:27:49.539Z,12.33
2023-05-18T17:30:19.420Z,12.37
2023-05-18T17:32:50.747Z,12.46
2023-05-18T17:35:21.024Z,12.38
2023-05-18T17:37:51.107Z,12.41
2023-05-18T17:40:21.303Z,12.36
2023-05-18T17:42:53.764Z,12.37
2023-05-18T17:45:23.646Z,12.31
2023-05-18T17:47:53.703Z,12.23
2023-05-18T17:50:23.629Z,12.29
2023-05-18T17:52:53.577Z,12.25
2023-05-18T17:55:23.429Z,12.19
2023-05-18T17:57:55.890Z,12.25
2023-05-18T18:00:25.902Z,12.22
2023-05-18T18:02:55.887Z,12.12
2023-05-18T18:05:28.910Z,12.09
2023-05-18T18:07:59.635Z,12.05
2023-05-18T18:10:32.038Z,11.93
2023-05-18T18:13:04.594Z,11.97
2023-05-18T18:15:34.556Z,11.95
2023-05-18T18:18:04.455Z,12.08
2023-05-18T18:20:36.881Z,12.06
2023-05-18T18:23:07.665Z,12.07
2023-05-18T18:25:37.650Z,12.10
2023-05-18T18:28:14.843Z,12.21
2023-05-18T18:30:47.399Z,12.18
2023-05-18T18:33:17.340Z,12.20
2023-05-18T18:35:47.236Z,12.15
2023-05-18T18:38:17.156Z,11.99
2023-05-18T18:40:47.174Z,11.97
2023-05-18T18:43:19.746Z,11.95
2023-05-18T18:45:49.672Z,12.01
2023-05-18T18:48:21.521Z,12.05
2023-05-18T18:50:51.901Z,12.08
2023-05-18T18:53:21.884Z,11.98
2023-05-18T18:55:52.080Z,11.95
2023-05-18T18:58:25.486Z,11.98
2023-05-18T19:00:55.298Z,11.94
2023-05-18T19:03:26.279Z,11.82
2023-05-18T19:05:56.182Z,11.86
2023-05-18T19:08:26.824Z,11.90
2023-05-18T19:10:56.687Z,11.81
2023-05-18T19:13:29.125Z,11.75
2023-05-18T19:15:58.988Z,11.74
2023-05-18T19:18:28.940Z,11.74
2023-05-18T19:21:01.589Z,11.80
2023-05-18T19:23:31.614Z,11.81
2023-05-18T19:26:02.412Z,11.83
2023-05-18T19:28:34.986Z,11.84
2023-05-18T19:31:06.939Z,11.81
2023-05-18T19:33:36.759Z,11.79
2023-05-18T19:36:08.204Z,11.78
2023-05-18T19:38:38.043Z,11.79
2023-05-18T19:41:13.109Z,11.78
2023-05-18T19:43:51.058Z,11.78
2023-05-18T19:46:21.877Z,11.77
2023-05-18T19:48:56.402Z,11.77
2023-05-18T19:51:34.704Z,11.78
2023-05-18T19:54:10.711Z,11.80
2023-05-18T19:56:44.713Z,11.66
2023-05-18T19:59:19.755Z,11.64
2023-05-18T20:01:49.908Z,11.64
2023-05-18T20:04:25.321Z,11.66
2023-05-18T20:06:59.404Z,11.62
2023-05-18T20:09:29.862Z,11.60
2023-05-18T20:12:14.034Z,11.62
2023-05-18T20:14:48.322Z,11.60
2023-05-18T20:17:18.188Z,11.61
2023-05-18T20:19:50.832Z,11.55
2023-05-18T20:22:21.059Z,11.53
2023-05-18T20:24:50.985Z,11.51
2023-05-18T20:27:20.865Z,11.48
2023-05-18T20:29:53.331Z,11.46
2023-05-18T20:32:23.192Z,11.45
2023-05-18T20:34:53.024Z,11.44
2023-05-18T20:37:24.259Z,11.48
2023-05-18T20:39:57.500Z,11.46
2023-05-18T20:42:38.833Z,11.40
2023-05-18T20:45:12.461Z,11.38
2023-05-18T20:47:42.893Z,11.36
2023-05-18T20:50:13.797Z,11.35
2023-05-18T20:52:43.678Z,11.38
2023-05-18T20:55:14.938Z,11.40
2023-05-18T20:57:46.387Z,11.34
2023-05-18T21:00:20.801Z,11.31
2023-05-18T21:02:56.391Z,11.24
2023-05-18T21:05:26.403Z,11.23
2023-05-18T21:07:56.550Z,11.29
2023-05-18T21:10:26.388Z,11.23
2023-05-18T21:12:56.596Z,11.23
2023-05-18T21:15:29.850Z,11.23
2023-05-18T21:17:59.764Z,11.24
2023-05-18T21:20:29.841Z,11.21
2023-05-18T21:23:00.599Z,11.23
2023-05-18T21:25:30.465Z,11.20
2023-05-18T21:28:00.329Z,11.19
2023-05-18T21:30:35.494Z,11.14
2023-05-18T21:33:05.536Z,11.13
2023-05-18T21:35:35.591Z,11.11
2023-05-18T21:38:05.493Z,11.13
2023-05-18T21:40:36.501Z,11.14
2023-05-18T21:43:06.505Z,11.13
2023-05-18T21:45:39.065Z,11.11
2023-05-18T21:48:09.670Z,11.12
2023-05-18T21:50:42.579Z,11.10
2023-05-18T21:53:12.770Z,11.08
2023-05-18T21:55:42.697Z,11.09
2023-05-18T21:58:12.569Z,11.11
2023-05-18T22:00:45.035Z,11.12
2023-05-18T22:03:14.920Z,11.13
2023-05-18T22:05:44.970Z,11.13
2023-05-18T22:08:14.837Z,11.14
2023-05-18T22:10:44.729Z,11.11
2023-05-18T22:13:14.663Z,11.10
2023-05-18T22:15:47.150Z,11.10
2023-05-18T22:18:19.509Z,11.09
2023-05-18T22:20:50.252Z,11.07
2023-05-18T22:23:20.080Z,11.05
2023-05-18T22:25:50.101Z,11.05
2023-05-18T22:28:21.796Z,11.04
2023-05-18T22:30:55.417Z,11.05
2023-05-18T22:33:25.263Z,11.06
2023-05-18T22:35:55.243Z,11.07
2023-05-18T22:38:27.288Z,11.11
2023-05-18T22:40:57.118Z,11.15
2023-05-18T22:43:26.961Z,11.12
2023-05-18T22:45:59.490Z,11.10
2023-05-18T22:48:32.113Z,11.10
2023-05-18T22:51:04.388Z,11.09
2023-05-18T22:53:34.244Z,11.10
2023-05-18T22:56:04.173Z,11.08
2023-05-18T22:58:34.025Z,11.07
2023-05-18T23:01:12.232Z,11.06
2023-05-18T23:03:48.253Z,11.08
2023-05-18T23:06:18.133Z,11.03
2023-05-18T23:08:48.347Z,10.99
2023-05-18T23:11:28.246Z,10.97
2023-05-18T23:14:02.709Z,10.99
2023-05-18T23:16:35.265Z,10.96
2023-05-18T23:19:05.315Z,10.96
2023-05-18T23:21:35.287Z,10.97
2023-05-18T23:24:08.082Z,10.98
2023-05-18T23:26:37.991Z,10.97
2023-05-18T23:29:09.136Z,10.98
2023-05-18T23:31:44.386Z,10.97
2023-05-18T23:34:23.034Z,10.95
2023-05-18T23:36:57.628Z,10.93
2023-05-18T23:39:30.855Z,10.93
2023-05-18T23:42:04.803Z,10.93
2023-05-18T23:44:39.342Z,10.94
2023-05-18T23:47:16.940Z,10.94
2023-05-18T23:49:50.116Z,10.92
2023-05-18T23:52:24.269Z,10.91
2023-05-18T23:55:04.548Z,10.89
2023-05-18T23:57:39.170Z,10.88
